createdAt,value
2018-07-05T00:00:46.440Z,0.00
2018-07-05T00:01:46.428Z,0.00
2018-07-05T00:02:51.219Z,0.00
2018-07-05T00:03:46.440Z,0.00
2018-07-05T00:04:46.398Z,0.00
2018-07-05T00:05:46.385Z,0.00
2018-07-05T00:06:46.418Z,0.00
2018-07-05T00:07:46.367Z,0.00
2018-07-05T00:08:46.354Z,0.00
2018-07-05T00:09:46.371Z,0.00
2018-07-05T00:10:46.335Z,0.00
2018-07-05T00:11:46.332Z,0.00
2018-07-05T00:12:46.315Z,0.00
2018-07-05T00:13:46.405Z,0.00
2018-07-05T00:14:46.297Z,0.00
2018-07-05T00:15:46.315Z,0.00
2018-07-05T00:16:46.276Z,0.00
2018-07-05T00:17:46.277Z,0.00
2018-07-05T00:18:46.256Z,0.00
2018-07-05T00:19:46.579Z,0.00
2018-07-05T00:20:46.289Z,0.00
2018-07-05T00:21:46.259Z,0.00
2018-07-05T00:22:46.213Z,0.00
2018-07-05T00:23:46.199Z,0.00
2018-07-05T00:24:46.193Z,0.00
2018-07-05T00:25:46.184Z,0.00
2018-07-05T00:26:46.173Z,0.00
2018-07-05T00:27:46.291Z,0.00
2018-07-05T00:28:46.156Z,0.00
2018-07-05T00:29:46.146Z,0.00
2018-07-05T00:30:46.132Z,0.00
2018-07-05T00:31:46.125Z,0.00
2018-07-05T00:32:46.115Z,0.00
2018-07-05T00:33:46.118Z,0.00
2018-07-05T00:34:46.127Z,0.00
2018-07-05T00:35:46.082Z,0.00
2018-07-05T00:36:46.069Z,0.00
2018-07-05T00:37:46.060Z,0.00
2018-07-05T00:38:46.052Z,0.00
2018-07-05T00:39:46.060Z,0.00
2018-07-05T00:40:46.031Z,0.00
2018-07-05T00:41:46.054Z,0.00
2018-07-05T00:42:46.010Z,0.00
2018-07-05T00:43:45.997Z,0.00
2018-07-05T00:44:45.989Z,0.00
2018-07-05T00:45:46.011Z,0.00
2018-07-05T00:46:45.969Z,0.00
2018-07-05T00:47:45.953Z,0.00
2018-07-05T00:48:45.986Z,0.00
2018-07-05T00:49:45.940Z,0.00
2018-07-05T00:50:45.927Z,0.00
2018-07-05T00:51:45.945Z,0.00
2018-07-05T00:52:45.904Z,0.00
2018-07-05T00:53:45.891Z,0.00
2018-07-05T00:54:45.881Z,0.00
2018-07-05T00:55:45.908Z,0.00
2018-07-05T00:56:45.886Z,0.00
2018-07-05T00:57:45.868Z,0.00
2018-07-05T00:58:45.953Z,0.00
2018-07-05T00:59:45.829Z,0.00
2018-07-05T01:00:46.143Z,0.00
2018-07-05T01:01:45.806Z,0.00
2018-07-05T01:02:45.953Z,0.00
2018-07-05T01:03:50.612Z,0.00
2018-07-05T01:04:45.774Z,0.00
2018-07-05T01:05:45.763Z,0.00
2018-07-05T01:06:45.755Z,0.00
2018-07-05T01:07:45.744Z,0.00
2018-07-05T01:08:45.733Z,0.00
2018-07-05T01:09:45.780Z,0.00
2018-07-05T01:10:45.713Z,0.00
2018-07-05T01:11:45.704Z,0.00
2018-07-05T01:12:45.695Z,0.00
2018-07-05T01:13:45.680Z,0.00
2018-07-05T01:14:45.672Z,0.00
2018-07-05T01:15:45.693Z,0.00
2018-07-05T01:16:45.690Z,0.00
2018-07-05T01:17:45.644Z,0.00
2018-07-05T01:18:45.628Z,0.00
2018-07-05T01:19:45.625Z,0.00
2018-07-05T01:20:45.607Z,0.00
2018-07-05T01:21:45.631Z,0.00
2018-07-05T01:22:45.585Z,0.00
2018-07-05T01:23:45.613Z,0.00
2018-07-05T01:24:45.564Z,0.00
2018-07-05T01:25:45.557Z,0.00
2018-07-05T01:26:45.544Z,0.00
2018-07-05T01:27:45.559Z,0.00
2018-07-05T01:28:45.526Z,0.00
2018-07-05T01:29:45.512Z,0.00
2018-07-05T01:30:45.551Z,0.00
2018-07-05T01:31:45.492Z,0.00
2018-07-05T01:32:45.481Z,0.00
2018-07-05T01:33:45.506Z,0.00
2018-07-05T01:34:45.463Z,0.00
2018-07-05T01:35:45.454Z,0.00
2018-07-05T01:36:45.440Z,0.00
2018-07-05T01:37:45.464Z,0.00
2018-07-05T01:38:45.422Z,0.00
2018-07-05T01:39:45.447Z,0.00
2018-07-05T01:40:45.402Z,0.00
2018-07-05T01:41:45.391Z,0.00
2018-07-05T01:42:45.383Z,0.00
2018-07-05T01:43:45.371Z,0.00
2018-07-05T01:44:45.398Z,0.00
2018-07-05T01:45:45.382Z,0.00
2018-07-05T01:46:45.337Z,0.00
2018-07-05T01:47:45.328Z,0.00
2018-07-05T01:48:45.319Z,0.00
2018-07-05T01:49:45.305Z,0.00
2018-07-05T01:50:45.300Z,0.00
2018-07-05T01:51:45.354Z,0.00
2018-07-05T01:52:45.278Z,0.00
2018-07-05T01:53:45.263Z,0.00
2018-07-05T01:54:45.256Z,0.00
2018-07-05T01:55:45.248Z,0.00
2018-07-05T01:56:45.233Z,0.00
2018-07-05T01:57:45.241Z,0.00
2018-07-05T01:58:45.245Z,0.00
2018-07-05T01:59:45.202Z,0.00
2018-07-05T02:00:45.302Z,0.00
2018-07-05T02:01:45.181Z,0.00
2018-07-05T02:02:45.167Z,0.00
2018-07-05T02:03:45.272Z,0.00
2018-07-05T02:04:45.148Z,0.00
2018-07-05T02:05:49.977Z,0.00
2018-07-05T02:06:45.124Z,0.00
2018-07-05T02:07:45.117Z,0.00
2018-07-05T02:08:45.107Z,0.00
2018-07-05T02:09:45.126Z,0.00
2018-07-05T02:10:45.082Z,0.00
2018-07-05T02:11:45.070Z,0.00
2018-07-05T02:12:45.102Z,0.00
2018-07-05T02:13:45.052Z,0.00
2018-07-05T02:14:45.045Z,0.00
2018-07-05T02:15:45.052Z,0.00
2018-07-05T02:16:45.018Z,0.00
2018-07-05T02:17:45.010Z,0.00
2018-07-05T02:18:44.998Z,0.00
2018-07-05T02:19:45.023Z,0.00
2018-07-05T02:20:44.974Z,0.00
2018-07-05T02:21:44.985Z,0.00
2018-07-05T02:22:44.958Z,0.00
2018-07-05T02:23:44.942Z,0.00
2018-07-05T02:24:44.931Z,0.00
2018-07-05T02:25:44.928Z,0.00
2018-07-05T02:26:44.982Z,0.00
2018-07-05T02:27:44.902Z,0.00
2018-07-05T02:28:44.889Z,0.00
2018-07-05T02:29:44.880Z,0.00
2018-07-05T02:30:44.869Z,0.00
2018-07-05T02:31:44.860Z,0.00
2018-07-05T02:32:44.868Z,0.00
2018-07-05T02:33:44.871Z,0.00
2018-07-05T02:34:44.824Z,0.00
2018-07-05T02:35:44.816Z,0.00
2018-07-05T02:36:44.805Z,0.00
2018-07-05T02:37:44.796Z,0.00
2018-07-05T02:38:44.820Z,0.00
2018-07-05T02:39:44.776Z,0.00
2018-07-05T02:40:44.799Z,0.00
2018-07-05T02:41:44.751Z,0.00
2018-07-05T02:42:44.742Z,0.00
2018-07-05T02:43:44.731Z,0.00
2018-07-05T02:44:44.739Z,0.00
2018-07-05T02:45:44.703Z,0.00
2018-07-05T02:46:44.698Z,0.00
2018-07-05T02:47:44.723Z,0.00
2018-07-05T02:48:44.674Z,0.00
2018-07-05T02:49:44.664Z,0.00
2018-07-05T02:50:44.675Z,0.00
2018-07-05T02:51:44.642Z,0.00
2018-07-05T02:52:44.632Z,0.00
2018-07-05T02:53:44.622Z,0.00
2018-07-05T02:54:44.653Z,0.00
2018-07-05T02:55:44.598Z,0.00
2018-07-05T02:56:44.624Z,0.00
2018-07-05T02:57:44.581Z,0.00
2018-07-05T02:58:44.569Z,0.00
2018-07-05T02:59:44.555Z,0.00
2018-07-05T03:00:44.546Z,0.00
2018-07-05T03:01:44.663Z,0.00
2018-07-05T03:02:44.551Z,0.00
2018-07-05T03:03:44.515Z,0.00
2018-07-05T03:04:44.501Z,0.00
2018-07-05T03:05:44.490Z,0.00
2018-07-05T03:06:49.280Z,0.00
2018-07-05T03:07:44.473Z,0.00
2018-07-05T03:08:44.544Z,0.00
2018-07-05T03:09:44.453Z,0.00
2018-07-05T03:10:44.440Z,0.00
2018-07-05T03:11:44.427Z,0.00
2018-07-05T03:12:44.418Z,0.00
2018-07-05T03:13:44.441Z,0.00
2018-07-05T03:14:44.396Z,0.00
2018-07-05T03:15:44.419Z,0.00
2018-07-05T03:16:44.371Z,0.00
2018-07-05T03:17:44.360Z,0.00
2018-07-05T03:18:44.353Z,0.00
2018-07-05T03:19:44.378Z,0.00
2018-07-05T03:20:44.334Z,0.00
2018-07-05T03:21:44.318Z,0.00
2018-07-05T03:22:44.351Z,0.00
2018-07-05T03:23:44.301Z,0.00
2018-07-05T03:24:44.288Z,0.00
2018-07-05T03:25:44.311Z,0.00
2018-07-05T03:26:44.264Z,0.00
2018-07-05T03:27:44.254Z,0.00
2018-07-05T03:28:44.249Z,0.00
2018-07-05T03:29:44.268Z,0.00
2018-07-05T03:30:44.222Z,0.00
2018-07-05T03:31:44.234Z,0.00
2018-07-05T03:32:44.202Z,0.00
2018-07-05T03:33:44.194Z,0.00
2018-07-05T03:34:44.180Z,0.00
2018-07-05T03:35:44.169Z,5.62
2018-07-05T03:36:44.259Z,5.62
2018-07-05T03:37:44.169Z,5.62
2018-07-05T03:38:44.210Z,5.62
2018-07-05T03:39:44.127Z,5.62
2018-07-05T03:40:44.115Z,5.62
2018-07-05T03:41:44.100Z,5.62
2018-07-05T03:42:44.191Z,5.62
2018-07-05T03:43:44.153Z,5.62
2018-07-05T03:44:44.071Z,5.62
2018-07-05T03:45:44.061Z,5.62
2018-07-05T03:46:44.051Z,5.62
2018-07-05T03:47:44.037Z,5.62
2018-07-05T03:48:44.028Z,5.62
2018-07-05T03:49:44.038Z,5.62
2018-07-05T03:50:44.039Z,5.62
2018-07-05T03:51:43.997Z,5.62
2018-07-05T03:52:43.982Z,5.62
2018-07-05T03:53:43.972Z,5.62
2018-07-05T03:54:43.970Z,5.62
2018-07-05T03:55:43.988Z,11.25
2018-07-05T03:56:43.949Z,11.25
2018-07-05T03:57:43.964Z,11.25
2018-07-05T03:58:43.920Z,11.25
2018-07-05T03:59:43.911Z,11.25
2018-07-05T04:00:43.918Z,11.25
2018-07-05T04:01:43.889Z,11.25
2018-07-05T04:02:44.015Z,11.25
2018-07-05T04:03:43.865Z,11.25
2018-07-05T04:04:43.891Z,11.25
2018-07-05T04:05:43.846Z,11.25
2018-07-05T04:06:43.878Z,11.25
2018-07-05T04:07:48.621Z,11.25
2018-07-05T04:08:43.811Z,11.25
2018-07-05T04:09:43.800Z,11.25
2018-07-05T04:10:43.794Z,11.25
2018-07-05T04:11:43.820Z,11.25
2018-07-05T04:12:43.804Z,11.25
2018-07-05T04:13:43.757Z,11.25
2018-07-05T04:14:43.749Z,11.25
2018-07-05T04:15:43.795Z,16.88
2018-07-05T04:16:43.727Z,16.88
2018-07-05T04:17:43.737Z,16.88
2018-07-05T04:18:43.778Z,16.88
2018-07-05T04:19:43.696Z,16.88
2018-07-05T04:20:43.685Z,16.88
2018-07-05T04:21:43.686Z,16.88
2018-07-05T04:22:43.662Z,16.88
2018-07-05T04:23:43.707Z,16.88
2018-07-05T04:24:43.661Z,16.88
2018-07-05T04:25:43.741Z,16.88
2018-07-05T04:26:43.620Z,16.88
2018-07-05T04:27:43.609Z,16.88
2018-07-05T04:28:43.599Z,22.50
2018-07-05T04:29:43.590Z,22.50
2018-07-05T04:30:43.603Z,22.50
2018-07-05T04:31:43.567Z,22.50
2018-07-05T04:32:43.603Z,22.50
2018-07-05T04:33:43.548Z,22.50
2018-07-05T04:34:43.535Z,22.50
2018-07-05T04:35:43.527Z,28.12
2018-07-05T04:36:43.536Z,28.12
2018-07-05T04:37:43.507Z,28.12
2018-07-05T04:38:43.496Z,28.12
2018-07-05T04:39:43.538Z,28.12
2018-07-05T04:40:43.480Z,28.12
2018-07-05T04:41:43.463Z,33.75
2018-07-05T04:42:43.475Z,33.75
2018-07-05T04:43:43.448Z,33.75
2018-07-05T04:44:43.436Z,33.75
2018-07-05T04:45:43.427Z,33.75
2018-07-05T04:46:43.458Z,39.38
2018-07-05T04:47:43.423Z,39.38
2018-07-05T04:48:43.392Z,39.38
2018-07-05T04:49:43.387Z,39.38
2018-07-05T04:50:43.375Z,39.38
2018-07-05T04:51:43.368Z,39.38
2018-07-05T04:52:43.354Z,45.00
2018-07-05T04:53:43.398Z,45.00
2018-07-05T04:54:43.335Z,45.00
2018-07-05T04:55:43.322Z,45.00
2018-07-05T04:56:43.314Z,45.00
2018-07-05T04:57:43.301Z,45.00
2018-07-05T04:58:43.296Z,45.00
2018-07-05T04:59:43.299Z,45.00
2018-07-05T05:00:43.304Z,45.00
2018-07-05T05:01:43.261Z,45.00
2018-07-05T05:02:43.275Z,45.00
2018-07-05T05:03:43.320Z,45.00
2018-07-05T05:04:43.229Z,45.00
2018-07-05T05:05:43.240Z,45.00
2018-07-05T05:06:43.211Z,45.00
2018-07-05T05:07:43.241Z,45.00
2018-07-05T05:08:48.020Z,45.00
2018-07-05T05:09:43.181Z,45.00
2018-07-05T05:10:43.168Z,45.00
2018-07-05T05:11:43.176Z,45.00
2018-07-05T05:12:43.145Z,45.00
2018-07-05T05:13:43.136Z,50.62
2018-07-05T05:14:43.162Z,50.62
2018-07-05T05:15:43.118Z,50.62
2018-07-05T05:16:43.112Z,50.62
2018-07-05T05:17:43.114Z,50.62
2018-07-05T05:18:43.085Z,50.62
2018-07-05T05:19:43.077Z,50.62
2018-07-05T05:20:43.064Z,50.62
2018-07-05T05:21:43.091Z,50.62
2018-07-05T05:22:43.042Z,50.62
2018-07-05T05:23:43.069Z,50.62
2018-07-05T05:24:43.023Z,50.62
2018-07-05T05:25:43.014Z,50.62
2018-07-05T05:26:43.004Z,50.62
2018-07-05T05:27:42.992Z,50.62
2018-07-05T05:28:43.021Z,50.62
2018-07-05T05:29:42.989Z,50.62
2018-07-05T05:30:42.958Z,50.62
2018-07-05T05:31:42.950Z,56.25
2018-07-05T05:32:42.934Z,56.25
2018-07-05T05:33:42.927Z,56.25
2018-07-05T05:34:42.917Z,56.25
2018-07-05T05:35:42.975Z,56.25
2018-07-05T05:36:42.894Z,56.25
2018-07-05T05:37:42.884Z,56.25
2018-07-05T05:38:42.877Z,56.25
2018-07-05T05:39:42.862Z,56.25
2018-07-05T05:40:42.885Z,56.25
2018-07-05T05:41:42.842Z,56.25
2018-07-05T05:42:42.869Z,56.25
2018-07-05T05:43:42.823Z,56.25
2018-07-05T05:44:42.810Z,56.25
2018-07-05T05:45:42.795Z,56.25
2018-07-05T05:46:42.840Z,56.25
2018-07-05T05:47:42.839Z,56.25
2018-07-05T05:48:42.764Z,56.25
2018-07-05T05:49:42.789Z,56.25
2018-07-05T05:50:42.739Z,56.25
2018-07-05T05:51:42.732Z,61.88
2018-07-05T05:52:42.760Z,61.88
2018-07-05T05:53:42.706Z,61.88
2018-07-05T05:54:42.696Z,61.88
2018-07-05T05:55:42.718Z,61.88
2018-07-05T05:56:42.715Z,61.88
2018-07-05T05:57:42.670Z,61.88
2018-07-05T05:58:42.686Z,61.88
2018-07-05T05:59:42.643Z,61.88
2018-07-05T06:00:42.642Z,61.88
2018-07-05T06:01:42.630Z,61.88
2018-07-05T06:02:42.611Z,61.88
2018-07-05T06:03:42.639Z,61.88
2018-07-05T06:04:42.665Z,61.88
2018-07-05T06:05:42.578Z,61.88
2018-07-05T06:06:42.563Z,61.88
2018-07-05T06:07:42.552Z,61.88
2018-07-05T06:08:42.540Z,67.50
2018-07-05T06:09:47.355Z,67.50
2018-07-05T06:10:42.602Z,67.50
2018-07-05T06:11:42.509Z,67.50
2018-07-05T06:12:42.498Z,67.50
2018-07-05T06:13:42.489Z,67.50
2018-07-05T06:14:42.479Z,67.50
2018-07-05T06:15:42.467Z,67.50
2018-07-05T06:16:42.495Z,67.50
2018-07-05T06:17:42.494Z,67.50
2018-07-05T06:18:42.519Z,67.50
2018-07-05T06:19:42.420Z,73.12
2018-07-05T06:20:42.412Z,73.12
2018-07-05T06:21:42.399Z,73.12
2018-07-05T06:22:42.430Z,73.12
2018-07-05T06:23:42.377Z,73.12
2018-07-05T06:24:42.590Z,73.12
2018-07-05T06:25:42.392Z,73.12
2018-07-05T06:26:42.342Z,67.50
2018-07-05T06:27:42.335Z,67.50
2018-07-05T06:28:42.358Z,73.12
2018-07-05T06:29:42.313Z,73.12
2018-07-05T06:30:42.301Z,73.12
2018-07-05T06:31:42.323Z,73.12
2018-07-05T06:32:42.277Z,73.12
2018-07-05T06:33:42.266Z,73.12
2018-07-05T06:34:42.290Z,73.12
2018-07-05T06:35:42.245Z,78.75
2018-07-05T06:36:42.237Z,78.75
2018-07-05T06:37:42.222Z,78.75
2018-07-05T06:38:42.256Z,78.75
2018-07-05T06:39:42.205Z,78.75
2018-07-05T06:40:42.226Z,73.12
2018-07-05T06:41:42.178Z,73.12
2018-07-05T06:42:42.170Z,73.12
2018-07-05T06:43:42.159Z,73.12
2018-07-05T06:44:42.157Z,73.12
2018-07-05T06:45:42.218Z,73.12
2018-07-05T06:46:42.159Z,73.12
2018-07-05T06:47:42.118Z,73.12
2018-07-05T06:48:42.106Z,73.12
2018-07-05T06:49:42.147Z,73.12
2018-07-05T06:50:42.085Z,73.12
2018-07-05T06:51:42.078Z,73.12
2018-07-05T06:52:42.112Z,73.12
2018-07-05T06:53:42.056Z,73.12
2018-07-05T06:54:42.041Z,73.12
2018-07-05T06:55:42.030Z,78.75
2018-07-05T06:56:42.021Z,78.75
2018-07-05T06:57:42.010Z,78.75
2018-07-05T06:58:42.043Z,78.75
2018-07-05T06:59:42.024Z,78.75
2018-07-05T07:00:41.976Z,78.75
2018-07-05T07:01:41.985Z,84.38
2018-07-05T07:02:41.954Z,84.38
2018-07-05T07:03:41.959Z,84.38
2018-07-05T07:04:41.972Z,84.38
2018-07-05T07:05:41.979Z,84.38
2018-07-05T07:06:41.960Z,84.38
2018-07-05T07:07:41.900Z,84.38
2018-07-05T07:08:41.892Z,84.38
2018-07-05T07:09:41.878Z,84.38
2018-07-05T07:10:46.721Z,84.38
2018-07-05T07:11:41.857Z,84.38
2018-07-05T07:12:41.848Z,84.38
2018-07-05T07:13:41.879Z,84.38
2018-07-05T07:14:41.834Z,84.38
2018-07-05T07:15:41.814Z,84.38
2018-07-05T07:16:41.917Z,84.38
2018-07-05T07:17:41.854Z,84.38
2018-07-05T07:18:41.833Z,90.00
2018-07-05T07:19:41.809Z,90.00
2018-07-05T07:20:41.971Z,90.00
2018-07-05T07:21:41.754Z,84.38
2018-07-05T07:22:41.767Z,84.38
2018-07-05T07:23:41.733Z,84.38
2018-07-05T07:24:41.723Z,84.38
2018-07-05T07:25:41.710Z,90.00
2018-07-05T07:26:41.701Z,90.00
2018-07-05T07:27:41.735Z,95.62
2018-07-05T07:28:41.699Z,95.62
2018-07-05T07:29:41.671Z,90.00
2018-07-05T07:30:41.662Z,95.62
2018-07-05T07:31:41.689Z,95.62
2018-07-05T07:32:41.639Z,95.62
2018-07-05T07:33:41.641Z,101.25
2018-07-05T07:34:41.657Z,101.25
2018-07-05T07:35:41.601Z,101.25
2018-07-05T07:36:41.597Z,106.88
2018-07-05T07:37:41.637Z,106.88
2018-07-05T07:38:41.581Z,106.88
2018-07-05T07:39:41.573Z,106.88
2018-07-05T07:40:41.577Z,106.88
2018-07-05T07:41:41.573Z,101.25
2018-07-05T07:42:41.534Z,106.88
2018-07-05T07:43:41.523Z,106.88
2018-07-05T07:44:41.533Z,112.50
2018-07-05T07:45:41.531Z,112.50
2018-07-05T07:46:41.530Z,112.50
2018-07-05T07:47:41.484Z,112.50
2018-07-05T07:48:41.497Z,106.88
2018-07-05T07:49:41.460Z,106.88
2018-07-05T07:50:41.452Z,106.88
2018-07-05T07:51:41.451Z,112.50
2018-07-05T07:52:41.446Z,112.50
2018-07-05T07:53:41.419Z,112.50
2018-07-05T07:54:41.408Z,112.50
2018-07-05T07:55:41.431Z,112.50
2018-07-05T07:56:41.412Z,112.50
2018-07-05T07:57:41.376Z,106.88
2018-07-05T07:58:41.429Z,112.50
2018-07-05T07:59:41.358Z,112.50
2018-07-05T08:00:41.342Z,118.12
2018-07-05T08:01:41.334Z,118.12
2018-07-05T08:02:41.346Z,123.75
2018-07-05T08:03:41.345Z,129.38
2018-07-05T08:04:41.301Z,135.00
2018-07-05T08:05:41.325Z,135.00
2018-07-05T08:06:41.338Z,140.62
2018-07-05T08:07:41.269Z,146.25
2018-07-05T08:08:41.261Z,146.25
2018-07-05T08:09:41.296Z,140.62
2018-07-05T08:10:41.278Z,146.25
2018-07-05T08:11:46.049Z,140.62
2018-07-05T08:12:41.231Z,140.62
2018-07-05T08:13:41.206Z,140.62
2018-07-05T08:14:41.192Z,140.62
2018-07-05T08:15:41.823Z,140.62
2018-07-05T08:16:41.255Z,140.62
2018-07-05T08:17:41.163Z,140.62
2018-07-05T08:18:41.155Z,140.62
2018-07-05T08:19:41.166Z,135.00
2018-07-05T08:20:41.136Z,135.00
2018-07-05T08:21:41.161Z,135.00
2018-07-05T08:22:41.115Z,135.00
2018-07-05T08:23:41.120Z,140.62
2018-07-05T08:24:41.089Z,146.25
2018-07-05T08:25:41.083Z,151.88
2018-07-05T08:26:41.089Z,151.88
2018-07-05T08:27:41.094Z,157.50
2018-07-05T08:28:41.053Z,157.50
2018-07-05T08:29:41.041Z,163.12
2018-07-05T08:30:41.054Z,163.12
2018-07-05T08:31:41.018Z,163.12
2018-07-05T08:32:41.022Z,163.12
2018-07-05T08:33:41.040Z,163.12
2018-07-05T08:34:40.983Z,163.12
2018-07-05T08:35:40.973Z,163.12
2018-07-05T08:36:40.963Z,157.50
2018-07-05T08:37:40.991Z,157.50
2018-07-05T08:38:40.941Z,157.50
2018-07-05T08:39:40.949Z,157.50
2018-07-05T08:40:40.945Z,157.50
2018-07-05T08:41:40.909Z,151.88
2018-07-05T08:42:40.905Z,157.50
2018-07-05T08:43:40.891Z,151.88
2018-07-05T08:44:40.931Z,151.88
2018-07-05T08:45:40.870Z,151.88
2018-07-05T08:46:40.860Z,151.88
2018-07-05T08:47:40.869Z,151.88
2018-07-05T08:48:40.851Z,151.88
2018-07-05T08:49:40.828Z,151.88
2018-07-05T08:50:40.835Z,151.88
2018-07-05T08:51:40.836Z,151.88
2018-07-05T08:52:40.795Z,151.88
2018-07-05T08:53:40.829Z,157.50
2018-07-05T08:54:40.797Z,151.88
2018-07-05T08:55:41.095Z,151.88
2018-07-05T08:56:40.797Z,151.88
2018-07-05T08:57:40.768Z,151.88
2018-07-05T08:58:40.760Z,151.88
2018-07-05T08:59:41.043Z,151.88
2018-07-05T09:00:40.711Z,151.88
2018-07-05T09:01:40.822Z,151.88
2018-07-05T09:02:40.724Z,151.88
2018-07-05T09:03:40.682Z,157.50
2018-07-05T09:04:40.669Z,157.50
2018-07-05T09:05:40.684Z,157.50
2018-07-05T09:06:40.649Z,163.12
2018-07-05T09:07:40.687Z,168.75
2018-07-05T09:08:40.684Z,163.12
2018-07-05T09:09:40.619Z,168.75
2018-07-05T09:10:40.606Z,168.75
2018-07-05T09:11:40.597Z,168.75
2018-07-05T09:12:45.422Z,168.75
2018-07-05T09:13:40.576Z,174.38
2018-07-05T09:14:40.654Z,174.38
2018-07-05T09:15:40.572Z,174.38
2018-07-05T09:16:40.551Z,174.38
2018-07-05T09:17:40.710Z,174.38
2018-07-05T09:18:40.524Z,174.38
2018-07-05T09:19:40.541Z,174.38
2018-07-05T09:20:40.539Z,174.38
2018-07-05T09:21:40.501Z,174.38
2018-07-05T09:22:40.498Z,174.38
2018-07-05T09:23:40.474Z,180.00
2018-07-05T09:24:40.459Z,180.00
2018-07-05T09:25:40.544Z,180.00
2018-07-05T09:26:40.515Z,174.38
2018-07-05T09:27:40.452Z,174.38
2018-07-05T09:28:40.422Z,174.38
2018-07-05T09:29:40.422Z,174.38
2018-07-05T09:30:40.719Z,180.00
2018-07-05T09:31:40.389Z,180.00
2018-07-05T09:32:40.733Z,180.00
2018-07-05T09:33:40.393Z,180.00
2018-07-05T09:34:40.792Z,180.00
2018-07-05T09:35:40.355Z,180.00
2018-07-05T09:36:40.371Z,180.00
2018-07-05T09:37:40.430Z,180.00
2018-07-05T09:38:40.343Z,185.62
2018-07-05T09:39:40.310Z,185.62
2018-07-05T09:40:40.320Z,185.62
2018-07-05T09:41:40.293Z,185.62
2018-07-05T09:42:40.280Z,185.62
2018-07-05T09:43:40.292Z,185.62
2018-07-05T09:44:40.277Z,185.62
2018-07-05T09:45:40.251Z,185.62
2018-07-05T09:46:40.240Z,185.62
2018-07-05T09:47:40.254Z,185.62
2018-07-05T09:48:40.217Z,180.00
2018-07-05T09:49:40.329Z,180.00
2018-07-05T09:50:40.213Z,180.00
2018-07-05T09:51:40.190Z,180.00
2018-07-05T09:52:40.220Z,180.00
2018-07-05T09:53:40.168Z,180.00
2018-07-05T09:54:40.186Z,180.00
2018-07-05T09:55:40.175Z,180.00
2018-07-05T09:56:40.139Z,180.00
2018-07-05T09:57:40.153Z,180.00
2018-07-05T09:58:40.121Z,180.00
2018-07-05T09:59:40.111Z,180.00
2018-07-05T10:00:40.100Z,180.00
2018-07-05T10:01:40.182Z,185.62
2018-07-05T10:02:40.077Z,185.62
2018-07-05T10:03:40.390Z,191.25
2018-07-05T10:04:40.075Z,191.25
2018-07-05T10:05:40.058Z,196.88
2018-07-05T10:06:40.041Z,196.88
2018-07-05T10:07:40.165Z,202.50
2018-07-05T10:08:40.120Z,202.50
2018-07-05T10:09:40.009Z,202.50
2018-07-05T10:10:39.998Z,202.50
2018-07-05T10:11:40.091Z,202.50
2018-07-05T10:12:39.973Z,208.12
2018-07-05T10:13:45.317Z,208.12
2018-07-05T10:14:41.049Z,208.12
2018-07-05T10:15:39.938Z,213.75
2018-07-05T10:16:39.929Z,213.75
2018-07-05T10:17:39.915Z,213.75
2018-07-05T10:18:39.946Z,213.75
2018-07-05T10:19:39.897Z,213.75
2018-07-05T10:20:39.884Z,213.75
2018-07-05T10:21:39.896Z,213.75
2018-07-05T10:22:39.865Z,213.75
2018-07-05T10:23:39.852Z,219.38
2018-07-05T10:24:39.859Z,219.38
2018-07-05T10:25:39.847Z,219.38
2018-07-05T10:26:39.926Z,219.38
2018-07-05T10:27:39.813Z,213.75
2018-07-05T10:28:39.822Z,213.75
2018-07-05T10:29:39.796Z,208.12
2018-07-05T10:30:39.818Z,208.12
2018-07-05T10:31:39.767Z,208.12
2018-07-05T10:32:39.770Z,202.50
2018-07-05T10:33:39.752Z,202.50
2018-07-05T10:34:39.739Z,202.50
2018-07-05T10:35:39.753Z,202.50
2018-07-05T10:36:39.739Z,196.88
2018-07-05T10:37:39.710Z,196.88
2018-07-05T10:38:39.698Z,196.88
2018-07-05T10:39:39.733Z,196.88
2018-07-05T10:40:39.675Z,196.88
2018-07-05T10:41:39.665Z,196.88
2018-07-05T10:42:39.710Z,196.88
2018-07-05T10:43:39.643Z,191.25
2018-07-05T10:44:39.633Z,191.25
2018-07-05T10:45:39.623Z,191.25
2018-07-05T10:46:39.625Z,191.25
2018-07-05T10:47:39.604Z,191.25
2018-07-05T10:48:39.629Z,191.25
2018-07-05T10:49:39.606Z,191.25
2018-07-05T10:50:39.572Z,191.25
2018-07-05T10:51:39.560Z,191.25
2018-07-05T10:52:39.552Z,191.25
2018-07-05T10:53:39.555Z,191.25
2018-07-05T10:54:39.712Z,196.88
2018-07-05T10:55:39.524Z,202.50
2018-07-05T10:56:39.534Z,196.88
2018-07-05T10:57:39.497Z,196.88
2018-07-05T10:58:39.488Z,202.50
2018-07-05T10:59:39.483Z,202.50
2018-07-05T11:00:39.536Z,202.50
2018-07-05T11:01:39.464Z,196.88
2018-07-05T11:02:39.454Z,202.50
2018-07-05T11:03:39.461Z,202.50
2018-07-05T11:04:39.433Z,202.50
2018-07-05T11:05:39.418Z,202.50
2018-07-05T11:06:39.447Z,202.50
2018-07-05T11:07:39.423Z,202.50
2018-07-05T11:08:39.387Z,202.50
2018-07-05T11:09:39.419Z,208.12
2018-07-05T11:10:39.390Z,202.50
2018-07-05T11:11:39.358Z,202.50
2018-07-05T11:12:39.386Z,202.50
2018-07-05T11:13:39.338Z,202.50
2018-07-05T11:14:44.234Z,202.50
2018-07-05T11:15:39.318Z,208.12
2018-07-05T11:16:39.365Z,208.12
2018-07-05T11:17:39.316Z,208.12
2018-07-05T11:18:39.325Z,208.12
2018-07-05T11:19:39.277Z,208.12
2018-07-05T11:20:39.266Z,208.12
2018-07-05T11:21:39.265Z,208.12
2018-07-05T11:22:39.246Z,208.12
2018-07-05T11:23:39.234Z,213.75
2018-07-05T11:24:39.279Z,213.75
2018-07-05T11:25:39.214Z,213.75
2018-07-05T11:26:39.206Z,213.75
2018-07-05T11:27:39.197Z,213.75
2018-07-05T11:28:39.196Z,213.75
2018-07-05T11:29:39.184Z,208.12
2018-07-05T11:30:39.198Z,208.12
2018-07-05T11:31:39.177Z,202.50
2018-07-05T11:32:39.142Z,202.50
2018-07-05T11:33:39.134Z,202.50
2018-07-05T11:34:39.119Z,196.88
2018-07-05T11:35:39.125Z,196.88
2018-07-05T11:36:39.141Z,191.25
2018-07-05T11:37:39.088Z,191.25
2018-07-05T11:38:39.101Z,191.25
2018-07-05T11:39:39.068Z,191.25
2018-07-05T11:40:39.060Z,185.62
2018-07-05T11:41:39.049Z,185.62
2018-07-05T11:42:39.101Z,185.62
2018-07-05T11:43:39.029Z,185.62
2018-07-05T11:44:39.020Z,180.00
2018-07-05T11:45:39.032Z,180.00
2018-07-05T11:46:39.035Z,180.00
2018-07-05T11:47:38.991Z,180.00
2018-07-05T11:48:39.012Z,174.38
2018-07-05T11:49:38.983Z,174.38
2018-07-05T11:50:38.958Z,174.38
2018-07-05T11:51:38.948Z,168.75
2018-07-05T11:52:38.964Z,163.12
2018-07-05T11:53:38.932Z,163.12
2018-07-05T11:54:38.957Z,163.12
2018-07-05T11:55:38.908Z,157.50
2018-07-05T11:56:38.907Z,157.50
2018-07-05T11:57:38.891Z,157.50
2018-07-05T11:58:38.887Z,163.12
2018-07-05T11:59:38.894Z,157.50
2018-07-05T12:00:38.892Z,151.88
2018-07-05T12:01:38.846Z,151.88
2018-07-05T12:02:38.837Z,151.88
2018-07-05T12:03:38.842Z,146.25
2018-07-05T12:04:38.817Z,146.25
2018-07-05T12:05:38.810Z,146.25
2018-07-05T12:06:38.859Z,146.25
2018-07-05T12:07:38.785Z,151.88
2018-07-05T12:08:38.868Z,157.50
2018-07-05T12:09:38.761Z,157.50
2018-07-05T12:10:38.904Z,157.50
2018-07-05T12:11:38.744Z,163.12
2018-07-05T12:12:38.781Z,157.50
2018-07-05T12:13:38.742Z,151.88
2018-07-05T12:14:38.732Z,135.00
2018-07-05T12:15:43.520Z,129.38
2018-07-05T12:16:38.696Z,135.00
2018-07-05T12:17:38.696Z,135.00
2018-07-05T12:18:38.704Z,140.62
2018-07-05T12:19:38.659Z,146.25
2018-07-05T12:20:38.670Z,151.88
2018-07-05T12:21:38.641Z,157.50
2018-07-05T12:22:38.630Z,163.12
2018-07-05T12:23:38.622Z,163.12
2018-07-05T12:24:38.658Z,163.12
2018-07-05T12:25:38.600Z,157.50
2018-07-05T12:26:38.588Z,151.88
2018-07-05T12:27:38.593Z,146.25
2018-07-05T12:28:38.622Z,146.25
2018-07-05T12:29:38.560Z,146.25
2018-07-05T12:30:38.605Z,146.25
2018-07-05T12:31:38.566Z,146.25
2018-07-05T12:32:38.529Z,146.25
2018-07-05T12:33:38.538Z,151.88
2018-07-05T12:34:38.526Z,146.25
2018-07-05T12:35:38.497Z,146.25
2018-07-05T12:36:38.527Z,146.25
2018-07-05T12:37:38.478Z,146.25
2018-07-05T12:38:38.478Z,146.25
2018-07-05T12:39:38.458Z,146.25
2018-07-05T12:40:38.447Z,146.25
2018-07-05T12:41:38.459Z,146.25
2018-07-05T12:42:38.463Z,146.25
2018-07-05T12:43:38.431Z,151.88
2018-07-05T12:44:38.404Z,151.88
2018-07-05T12:45:38.421Z,151.88
2018-07-05T12:46:38.386Z,157.50
2018-07-05T12:47:38.383Z,157.50
2018-07-05T12:48:38.433Z,157.50
2018-07-05T12:49:38.364Z,163.12
2018-07-05T12:50:38.346Z,163.12